Time;durP1;ratioP1;P1;durP2;ratioP2;P2;SDS_P1;SDS_P2;PMS_P1;PMS_P2;Temp;Humidity;BMP_temperature;BMP_pressure;BME280_temperature;BME280_humidity;BME280_pressure;Samples;Min_cycle;Max_cycle;Signal;HPM_P1;HPM_P2
2021/08/19 00:00:59;;;;;;;8.53;5.03;;;;;;;;;;5037392;28;20207;-75
2021/08/19 00:03:27;;;;;;;8.83;3.97;;;;;;;;;;5040821;28;20215;-75
2021/08/19 00:05:54;;;;;;;10.53;4.20;;;;;;;;;;5040815;28;20685;-76
2021/08/19 00:08:21;;;;;;;10.73;4.17;;;;;;;;;;5039253;28;20213;-75
2021/08/19 00:10:48;;;;;;;13.97;4.43;;;;;;;;;;5038820;28;20214;-75
2021/08/19 00:13:16;;;;;;;6.80;4.23;;;;;;;;;;5042357;28;20234;-75
2021/08/19 00:15:44;;;;;;;8.33;3.50;;;;;;;;;;5037968;28;20203;-75
2021/08/19 00:18:11;;;;;;;6.77;3.60;;;;;;;;;;5034483;28;20254;-75
2021/08/19 00:20:39;;;;;;;9.17;4.03;;;;;;;;;;5037297;28;20199;-75
2021/08/19 00:23:07;;;;;;;7.90;3.90;;;;;;;;;;5038831;28;20713;-76
2021/08/19 00:25:36;;;;;;;9.57;4.53;;;;;;;;;;5039274;28;20200;-75
2021/08/19 00:28:03;;;;;;;10.27;3.83;;;;;;;;;;5037814;28;20582;-75
2021/08/19 00:30:30;;;;;;;6.93;4.10;;;;;;;;;;5037499;28;20212;-74
2021/08/19 00:32:59;;;;;;;8.33;4.17;;;;;;;;;;5036118;28;20583;-75
2021/08/19 00:35:26;;;;;;;6.40;4.17;;;;;;;;;;5035218;28;20211;-75
2021/08/19 00:37:53;;;;;;;8.97;4.50;;;;;;;;;;5036546;28;20314;-75
2021/08/19 00:40:20;;;;;;;8.80;4.03;;;;;;;;;;5034292;28;20238;-74
2021/08/19 00:42:48;;;;;;;6.73;4.33;;;;;;;;;;5038077;28;20210;-74
2021/08/19 00:45:15;;;;;;;7.37;4.23;;;;;;;;;;5034652;28;20292;-74
2021/08/19 00:47:42;;;;;;;10.07;4.33;;;;;;;;;;5035272;28;20207;-75
2021/08/19 00:50:11;;;;;;;7.70;4.10;;;;;;;;;;5038034;28;20238;-75
2021/08/19 00:52:39;;;;;;;7.53;4.30;;;;;;;;;;5034666;28;20207;-75
2021/08/19 00:55:07;;;;;;;8.53;3.73;;;;;;;;;;5036810;28;20220;-75
2021/08/19 00:57:35;;;;;;;7.07;3.97;;;;;;;;;;5039607;28;20215;-75
2021/08/19 01:00:03;;;;;;;7.07;4.40;;;;;;;;;;5035515;28;20218;-75
2021/08/19 01:02:30;;;;;;;7.57;4.33;;;;;;;;;;5035848;28;20579;-75
2021/08/19 01:04:57;;;;;;;13.80;5.00;;;;;;;;;;5040421;28;20796;-75
2021/08/19 01:07:25;;;;;;;7.10;4.50;;;;;;;;;;5034802;28;20199;-75
2021/08/19 01:09:53;;;;;;;8.63;4.20;;;;;;;;;;5034565;28;20653;-75
2021/08/19 01:12:20;;;;;;;11.70;4.53;;;;;;;;;;5037958;28;20661;-75
2021/08/19 01:14:48;;;;;;;8.83;4.20;;;;;;;;;;5037087;28;20245;-75
2021/08/19 01:17:17;;;;;;;12.20;4.37;;;;;;;;;;5037662;28;20253;-75
2021/08/19 01:19:46;;;;;;;9.17;4.30;;;;;;;;;;5036092;28;20207;-75
2021/08/19 01:22:14;;;;;;;12.47;4.50;;;;;;;;;;5036525;28;20637;-75
2021/08/19 01:24:42;;;;;;;5.87;3.60;;;;;;;;;;5032607;28;20310;-75
2021/08/19 01:27:13;;;;;;;8.27;4.53;;;;;;;;;;5037140;28;20212;-75
2021/08/19 01:29:41;;;;;;;9.40;4.40;;;;;;;;;;5036913;28;20203;-75
2021/08/19 01:32:08;;;;;;;7.00;4.70;;;;;;;;;;5035639;28;20210;-75
2021/08/19 01:34:36;;;;;;;6.23;3.80;;;;;;;;;;5031979;28;20220;-75
2021/08/19 01:37:03;;;;;;;8.13;4.50;;;;;;;;;;5036901;28;20215;-75
2021/08/19 01:39:30;;;;;;;8.57;4.93;;;;;;;;;;5035963;28;20290;-75
2021/08/19 01:41:58;;;;;;;7.60;4.77;;;;;;;;;;5036807;28;20230;-75
2021/08/19 01:44:26;;;;;;;7.70;4.53;;;;;;;;;;5037151;28;20238;-75
2021/08/19 01:46:54;;;;;;;8.30;4.50;;;;;;;;;;5036103;28;20206;-75
2021/08/19 01:49:21;;;;;;;8.27;4.83;;;;;;;;;;5032780;28;20201;-75
2021/08/19 01:51:49;;;;;;;5.40;3.97;;;;;;;;;;5037080;28;20627;-75
2021/08/19 01:54:16;;;;;;;8.20;5.03;;;;;;;;;;5038505;28;20771;-75
2021/08/19 01:56:43;;;;;;;8.60;4.93;;;;;;;;;;5039063;28;20687;-76
2021/08/19 01:59:10;;;;;;;8.53;4.93;;;;;;;;;;5036623;28;20230;-75
2021/08/19 02:01:39;;;;;;;7.47;4.60;;;;;;;;;;5038151;28;20210;-75
2021/08/19 02:04:06;;;;;;;7.33;4.53;;;;;;;;;;5039012;28;20757;-75
2021/08/19 02:06:33;;;;;;;8.30;4.97;;;;;;;;;;5037186;28;20299;-74
2021/08/19 02:09:00;;;;;;;9.63;4.60;;;;;;;;;;5033852;28;20213;-75
2021/08/19 02:11:28;;;;;;;8.03;4.63;;;;;;;;;;5034367;28;20283;-75
2021/08/19 02:13:55;;;;;;;8.23;4.40;;;;;;;;;;5037683;28;20272;-75
2021/08/19 02:16:22;;;;;;;6.47;4.37;;;;;;;;;;5036679;28;20818;-75
2021/08/19 02:18:51;;;;;;;7.00;4.50;;;;;;;;;;5037475;28;20314;-73
2021/08/19 02:21:18;;;;;;;5.87;4.20;;;;;;;;;;5036350;28;20209;-75
2021/08/19 02:23:45;;;;;;;9.63;4.80;;;;;;;;;;5037709;28;20607;-75
2021/08/19 02:26:12;;;;;;;9.23;4.57;;;;;;;;;;5040441;28;20687;-75
2021/08/19 02:28:39;;;;;;;8.03;4.50;;;;;;;;;;5035456;28;20213;-75
2021/08/19 02:31:06;;;;;;;7.30;4.83;;;;;;;;;;5039095;28;20207;-74
2021/08/19 02:33:33;;;;;;;8.67;4.73;;;;;;;;;;5036055;28;20342;-75
2021/08/19 02:36:02;;;;;;;6.80;3.93;;;;;;;;;;5035201;28;20239;-76
2021/08/19 02:38:29;;;;;;;8.07;4.20;;;;;;;;;;5038740;28;20693;-75
2021/08/19 02:40:56;;;;;;;7.10;4.60;;;;;;;;;;5037999;28;20245;-74
2021/08/19 02:43:23;;;;;;;5.67;3.80;;;;;;;;;;5036859;28;20219;-74
2021/08/19 02:45:51;;;;;;;8.63;4.67;;;;;;;;;;5037989;28;20207;-73
2021/08/19 02:48:18;;;;;;;8.80;4.77;;;;;;;;;;5038446;28;20196;-74
2021/08/19 02:50:45;;;;;;;7.03;4.73;;;;;;;;;;5041582;28;20205;-74
2021/08/19 02:53:13;;;;;;;9.57;4.97;;;;;;;;;;5042394;28;20220;-75
2021/08/19 02:55:40;;;;;;;10.53;5.40;;;;;;;;;;5036785;28;20601;-74
2021/08/19 02:58:08;;;;;;;8.70;4.50;;;;;;;;;;5037458;28;20219;-75
2021/08/19 03:00:35;;;;;;;11.67;4.70;;;;;;;;;;5038338;28;20298;-75
2021/08/19 03:03:02;;;;;;;8.50;5.13;;;;;;;;;;5039742;28;20211;-75
2021/08/19 03:05:29;;;;;;;6.40;4.37;;;;;;;;;;5040542;28;20203;-75
2021/08/19 03:07:56;;;;;;;10.33;4.43;;;;;;;;;;5039916;28;20695;-75
2021/08/19 03:10:25;;;;;;;8.27;4.40;;;;;;;;;;5040264;28;20623;-75
2021/08/19 03:12:52;;;;;;;9.40;4.30;;;;;;;;;;5042224;28;20644;-75
2021/08/19 03:15:19;;;;;;;9.77;5.03;;;;;;;;;;5042006;28;20331;-75
2021/08/19 03:17:46;;;;;;;8.30;4.53;;;;;;;;;;5039473;28;20310;-75
2021/08/19 03:20:14;;;;;;;13.30;4.73;;;;;;;;;;5040812;28;20668;-74
2021/08/19 03:22:41;;;;;;;6.23;4.33;;;;;;;;;;5044176;28;20211;-74
2021/08/19 03:25:10;;;;;;;7.47;4.80;;;;;;;;;;5039710;28;20318;-77
2021/08/19 03:27:38;;;;;;;15.03;5.40;;;;;;;;;;5040937;28;20677;-76
2021/08/19 03:30:06;;;;;;;8.10;4.33;;;;;;;;;;5040919;28;20289;-74
2021/08/19 03:32:34;;;;;;;11.57;4.90;;;;;;;;;;5035215;28;20575;-74
2021/08/19 03:35:01;;;;;;;10.40;5.03;;;;;;;;;;5040715;28;20325;-74
2021/08/19 03:37:29;;;;;;;8.00;4.80;;;;;;;;;;5039226;28;20402;-74
2021/08/19 03:39:56;;;;;;;8.70;5.27;;;;;;;;;;5038412;28;20220;-74
2021/08/19 03:42:24;;;;;;;9.67;4.93;;;;;;;;;;5038441;28;20209;-76
2021/08/19 03:44:52;;;;;;;6.90;4.60;;;;;;;;;;5039526;28;20667;-76
2021/08/19 03:47:19;;;;;;;9.10;4.80;;;;;;;;;;5036796;28;20471;-75
2021/08/19 03:49:47;;;;;;;9.40;4.93;;;;;;;;;;5039887;28;20230;-75
2021/08/19 03:52:14;;;;;;;16.13;4.57;;;;;;;;;;5039442;28;20206;-74
2021/08/19 03:54:43;;;;;;;8.93;4.90;;;;;;;;;;5039139;28;20267;-74
2021/08/19 03:57:10;;;;;;;8.87;4.50;;;;;;;;;;5038396;28;20203;-74
2021/08/19 03:59:37;;;;;;;15.60;5.57;;;;;;;;;;5039055;28;20227;-74
2021/08/19 04:02:06;;;;;;;11.77;4.67;;;;;;;;;;5037681;28;20209;-75
2021/08/19 04:04:33;;;;;;;10.57;4.63;;;;;;;;;;5037706;28;20608;-75
2021/08/19 04:07:00;;;;;;;10.30;4.90;;;;;;;;;;5040535;28;20641;-75
2021/08/19 04:09:27;;;;;;;12.67;5.17;;;;;;;;;;5036979;28;20226;-75
2021/08/19 04:11:54;;;;;;;12.80;5.27;;;;;;;;;;5040973;28;20209;-75
2021/08/19 04:14:22;;;;;;;11.63;5.23;;;;;;;;;;5035943;28;20659;-75
2021/08/19 04:16:49;;;;;;;9.20;4.40;;;;;;;;;;5040733;28;20326;-77
2021/08/19 04:19:17;;;;;;;8.80;5.07;;;;;;;;;;5043632;28;20215;-77
2021/08/19 04:21:44;;;;;;;10.47;5.63;;;;;;;;;;5045729;28;20289;-76
2021/08/19 04:24:12;;;;;;;10.20;4.70;;;;;;;;;;5042265;28;20309;-76
2021/08/19 04:26:39;;;;;;;11.20;4.90;;;;;;;;;;5041049;28;20199;-76
2021/08/19 04:29:06;;;;;;;11.00;5.63;;;;;;;;;;5042951;28;20199;-75
2021/08/19 04:31:33;;;;;;;10.33;5.03;;;;;;;;;;5040412;28;20305;-75
2021/08/19 04:34:01;;;;;;;9.13;5.33;;;;;;;;;;5039512;28;20225;-73
2021/08/19 04:36:30;;;;;;;9.40;5.70;;;;;;;;;;5039105;28;20206;-74
2021/08/19 04:38:57;;;;;;;8.43;5.00;;;;;;;;;;5038194;28;20258;-75
2021/08/19 04:41:24;;;;;;;9.77;5.40;;;;;;;;;;5037018;28;20207;-75
2021/08/19 04:43:51;;;;;;;7.20;4.93;;;;;;;;;;5042955;28;20234;-75
2021/08/19 04:46:18;;;;;;;8.17;4.63;;;;;;;;;;5037280;28;20207;-75
2021/08/19 04:48:46;;;;;;;8.40;4.60;;;;;;;;;;5038582;28;20684;-75
2021/08/19 04:51:13;;;;;;;10.37;5.23;;;;;;;;;;5038539;28;20380;-75
2021/08/19 04:53:41;;;;;;;10.30;5.10;;;;;;;;;;5039079;28;20227;-75
2021/08/19 04:56:08;;;;;;;9.70;4.97;;;;;;;;;;5037414;28;20310;-75
2021/08/19 04:58:37;;;;;;;9.67;6.03;;;;;;;;;;5036111;28;20225;-75
2021/08/19 05:01:04;;;;;;;8.10;5.30;;;;;;;;;;5036537;28;20203;-75
2021/08/19 05:03:31;;;;;;;10.60;5.07;;;;;;;;;;5033583;28;20254;-75
2021/08/19 05:05:58;;;;;;;9.53;5.37;;;;;;;;;;5038594;28;20249;-75
2021/08/19 05:08:25;;;;;;;10.00;5.43;;;;;;;;;;5034836;28;20579;-75
2021/08/19 05:10:54;;;;;;;11.13;5.70;;;;;;;;;;5034000;28;20199;-75
2021/08/19 05:13:21;;;;;;;8.53;5.03;;;;;;;;;;5037317;28;20241;-75
2021/08/19 05:15:48;;;;;;;9.57;4.80;;;;;;;;;;5030999;28;20294;-75
2021/08/19 05:18:15;;;;;;;10.93;5.53;;;;;;;;;;5034997;28;20195;-75
2021/08/19 05:20:43;;;;;;;9.70;5.33;;;;;;;;;;5031708;28;20653;-75
2021/08/19 05:23:10;;;;;;;7.33;4.20;;;;;;;;;;5037335;28;20364;-76
2021/08/19 05:25:37;;;;;;;6.67;4.23;;;;;;;;;;5037822;28;20204;-75
2021/08/19 05:28:06;;;;;;;10.07;4.00;;;;;;;;;;5042802;28;20294;-75
2021/08/19 05:30:33;;;;;;;8.90;3.93;;;;;;;;;;5037447;28;20199;-75
2021/08/19 05:33:00;;;;;;;5.37;3.50;;;;;;;;;;5041577;28;20206;-76
2021/08/19 05:35:27;;;;;;;7.03;3.20;;;;;;;;;;5041671;28;20268;-76
2021/08/19 05:37:54;;;;;;;6.03;3.33;;;;;;;;;;5037036;28;20658;-76
2021/08/19 05:40:21;;;;;;;6.43;3.17;;;;;;;;;;5039575;28;20302;-76
2021/08/19 05:42:49;;;;;;;6.83;3.63;;;;;;;;;;5038422;28;20214;-76
2021/08/19 05:45:17;;;;;;;5.63;3.27;;;;;;;;;;5036366;28;20282;-74
2021/08/19 05:47:44;;;;;;;6.50;3.50;;;;;;;;;;5039843;28;20199;-75
2021/08/19 05:50:11;;;;;;;5.37;2.93;;;;;;;;;;5036442;28;20285;-75
2021/08/19 05:52:39;;;;;;;4.47;3.20;;;;;;;;;;5039144;28;20208;-74
2021/08/19 05:55:07;;;;;;;5.60;3.03;;;;;;;;;;5040258;28;20222;-76
2021/08/19 05:57:34;;;;;;;8.27;3.53;;;;;;;;;;5037745;28;20232;-75
2021/08/19 06:00:01;;;;;;;5.10;2.87;;;;;;;;;;5040908;28;20237;-77
2021/08/19 06:02:30;;;;;;;5.77;3.33;;;;;;;;;;5038801;28;20199;-75
2021/08/19 06:04:57;;;;;;;6.80;2.70;;;;;;;;;;5040270;28;20317;-75
2021/08/19 06:07:24;;;;;;;4.07;3.07;;;;;;;;;;5038291;28;20230;-75
2021/08/19 06:09:51;;;;;;;6.10;3.20;;;;;;;;;;5036384;28;20658;-75
2021/08/19 06:12:18;;;;;;;4.63;2.90;;;;;;;;;;5036596;28;20237;-76
2021/08/19 06:14:46;;;;;;;5.97;3.20;;;;;;;;;;5035730;28;20223;-76
2021/08/19 06:17:13;;;;;;;5.33;3.13;;;;;;;;;;5033843;28;20198;-75
2021/08/19 06:19:41;;;;;;;7.40;3.13;;;;;;;;;;5037028;28;20315;-76
2021/08/19 06:22:08;;;;;;;5.97;3.70;;;;;;;;;;5038958;28;20234;-76
2021/08/19 06:24:35;;;;;;;4.60;3.07;;;;;;;;;;5035472;28;20225;-76
2021/08/19 06:27:03;;;;;;;6.03;3.13;;;;;;;;;;5038639;28;20211;-76
2021/08/19 06:29:30;;;;;;;7.13;3.27;;;;;;;;;;5036391;28;20282;-75
2021/08/19 06:31:57;;;;;;;6.17;3.40;;;;;;;;;;5035463;28;20773;-76
2021/08/19 06:34:24;;;;;;;4.23;2.83;;;;;;;;;;5036785;28;20237;-76
2021/08/19 06:36:53;;;;;;;7.10;3.47;;;;;;;;;;5038828;28;20297;-76
2021/08/19 06:39:20;;;;;;;6.37;2.73;;;;;;;;;;5038698;28;20247;-76
2021/08/19 06:41:47;;;;;;;6.43;3.23;;;;;;;;;;5039737;28;20334;-76
2021/08/19 06:44:14;;;;;;;7.10;2.70;;;;;;;;;;5039413;28;20310;-76
2021/08/19 06:46:41;;;;;;;5.67;2.77;;;;;;;;;;5041603;28;20209;-76
2021/08/19 06:49:08;;;;;;;4.13;2.53;;;;;;;;;;5040826;28;20207;-76
2021/08/19 06:51:36;;;;;;;4.30;3.07;;;;;;;;;;5044691;28;20589;-75
2021/08/19 06:54:04;;;;;;;4.73;2.73;;;;;;;;;;5041886;28;20295;-76
2021/08/19 06:56:31;;;;;;;3.60;2.70;;;;;;;;;;5041804;28;20209;-76
2021/08/19 06:58:59;;;;;;;3.57;2.50;;;;;;;;;;5038609;28;20219;-75
2021/08/19 07:01:26;;;;;;;4.13;2.60;;;;;;;;;;5039803;28;20293;-76
2021/08/19 07:03:53;;;;;;;6.60;3.43;;;;;;;;;;5042780;28;20314;-76
2021/08/19 07:06:20;;;;;;;3.70;2.60;;;;;;;;;;5042740;28;20586;-77
2021/08/19 07:08:47;;;;;;;4.00;2.43;;;;;;;;;;5041659;28;20294;-76
2021/08/19 07:11:16;;;;;;;9.50;2.90;;;;;;;;;;5040409;28;20209;-75
2021/08/19 07:13:43;;;;;;;4.20;2.73;;;;;;;;;;5039509;28;20229;-76
2021/08/19 07:16:10;;;;;;;7.27;2.63;;;;;;;;;;5044016;28;20205;-76
2021/08/19 07:18:37;;;;;;;4.40;2.80;;;;;;;;;;5043955;28;20661;-76
2021/08/19 07:21:05;;;;;;;5.03;2.67;;;;;;;;;;5039304;28;20219;-75
2021/08/19 07:23:33;;;;;;;5.07;2.60;;;;;;;;;;5041777;28;20317;-76
2021/08/19 07:26:00;;;;;;;3.97;2.30;;;;;;;;;;5042047;28;20636;-75
2021/08/19 07:28:28;;;;;;;6.13;2.70;;;;;;;;;;5042817;28;20748;-75
2021/08/19 07:30:55;;;;;;;6.83;3.00;;;;;;;;;;5046135;28;20235;-76
2021/08/19 07:33:22;;;;;;;4.67;2.40;;;;;;;;;;5042891;28;20262;-75
2021/08/19 07:35:50;;;;;;;5.47;2.37;;;;;;;;;;5044573;28;20290;-76
2021/08/19 07:38:18;;;;;;;5.63;2.37;;;;;;;;;;5043803;28;20231;-76
2021/08/19 07:40:46;;;;;;;4.50;2.87;;;;;;;;;;5040439;28;20320;-76
2021/08/19 07:43:13;;;;;;;4.70;2.50;;;;;;;;;;5042667;28;20539;-76
2021/08/19 07:45:42;;;;;;;6.43;2.90;;;;;;;;;;5040174;28;20297;-77
2021/08/19 07:48:09;;;;;;;4.23;2.50;;;;;;;;;;5040164;28;20655;-77
2021/08/19 07:50:36;;;;;;;4.33;2.80;;;;;;;;;;5041245;28;20207;-76
2021/08/19 07:53:03;;;;;;;3.47;2.23;;;;;;;;;;5042703;28;20230;-76
2021/08/19 07:55:31;;;;;;;11.20;3.47;;;;;;;;;;5038971;28;20213;-74
2021/08/19 07:57:58;;;;;;;4.70;2.50;;;;;;;;;;5046568;28;20768;-76
2021/08/19 08:00:26;;;;;;;4.23;2.63;;;;;;;;;;5039116;28;20712;-75
2021/08/19 08:02:57;;;;;;;3.80;2.40;;;;;;;;;;5038951;28;20677;-81
2021/08/19 08:05:25;;;;;;;5.40;2.63;;;;;;;;;;5053430;28;20392;-80
2021/08/19 08:07:53;;;;;;;3.60;2.50;;;;;;;;;;5046666;28;20219;-80
2021/08/19 08:10:21;;;;;;;6.83;2.90;;;;;;;;;;5047343;28;20289;-74
2021/08/19 08:12:48;;;;;;;3.50;2.33;;;;;;;;;;5042934;28;20676;-74
2021/08/19 08:15:15;;;;;;;5.27;2.80;;;;;;;;;;5038645;28;20214;-75
2021/08/19 08:17:42;;;;;;;4.93;2.97;;;;;;;;;;5044241;28;20202;-75
2021/08/19 08:20:12;;;;;;;3.53;2.60;;;;;;;;;;5039533;28;20223;-75
2021/08/19 08:22:43;;;;;;;2.90;2.30;;;;;;;;;;5043059;28;20211;-75
2021/08/19 08:25:10;;;;;;;3.50;2.37;;;;;;;;;;5042828;28;20246;-75
2021/08/19 08:27:37;;;;;;;6.17;2.63;;;;;;;;;;5044394;28;20211;-75
2021/08/19 08:30:05;;;;;;;4.87;2.90;;;;;;;;;;5038136;28;20253;-75
2021/08/19 08:32:32;;;;;;;4.77;2.97;;;;;;;;;;5044722;28;20286;-75
2021/08/19 08:34:59;;;;;;;3.83;2.40;;;;;;;;;;5039363;28;20229;-75
2021/08/19 08:37:29;;;;;;;5.83;3.30;;;;;;;;;;5045435;28;20695;-75
2021/08/19 08:39:56;;;;;;;3.63;2.33;;;;;;;;;;5040272;28;20305;-76
2021/08/19 08:42:23;;;;;;;3.87;2.20;;;;;;;;;;5040799;28;20217;-76
2021/08/19 08:44:51;;;;;;;4.10;2.77;;;;;;;;;;5040423;28;20717;-75
2021/08/19 08:47:19;;;;;;;4.70;3.00;;;;;;;;;;5037812;28;20203;-75
2021/08/19 08:49:47;;;;;;;6.67;2.50;;;;;;;;;;5039788;28;20264;-76
2021/08/19 08:52:14;;;;;;;3.73;2.50;;;;;;;;;;5048823;28;20212;-76
2021/08/19 08:54:43;;;;;;;4.33;2.27;;;;;;;;;;5038908;28;20262;-76
2021/08/19 08:57:10;;;;;;;4.57;2.20;;;;;;;;;;5043368;28;20257;-75
2021/08/19 08:59:37;;;;;;;3.73;2.53;;;;;;;;;;5037871;28;20358;-75
2021/08/19 09:02:05;;;;;;;3.43;2.50;;;;;;;;;;5040495;28;20203;-76
2021/08/19 09:04:32;;;;;;;3.67;2.40;;;;;;;;;;5042842;28;20729;-76
2021/08/19 09:07:04;;;;;;;5.60;2.60;;;;;;;;;;5037583;28;20211;-75
2021/08/19 09:09:33;;;;;;;5.67;2.90;;;;;;;;;;5035483;28;20211;-76
2021/08/19 09:12:04;;;;;;;3.53;2.30;;;;;;;;;;5036560;28;20290;-76
2021/08/19 09:14:32;;;;;;;6.87;2.30;;;;;;;;;;5035338;28;20306;-76
2021/08/19 09:17:00;;;;;;;4.77;2.47;;;;;;;;;;5044247;28;20290;-75
2021/08/19 09:19:29;;;;;;;3.80;2.20;;;;;;;;;;5037644;28;20206;-75
2021/08/19 09:21:58;;;;;;;3.50;2.10;;;;;;;;;;5039968;28;20663;-75
2021/08/19 09:24:26;;;;;;;5.97;2.20;;;;;;;;;;5038877;28;20307;-75
2021/08/19 09:26:54;;;;;;;5.30;2.50;;;;;;;;;;5040298;28;20257;-76
2021/08/19 09:29:24;;;;;;;4.47;2.13;;;;;;;;;;5037870;28;20196;-76
2021/08/19 09:31:53;;;;;;;6.03;2.50;;;;;;;;;;5041161;28;20672;-76
2021/08/19 09:34:20;;;;;;;2.83;2.13;;;;;;;;;;5039756;28;20226;-76
2021/08/19 09:36:47;;;;;;;3.80;2.07;;;;;;;;;;5039365;28;20221;-77
2021/08/19 09:39:15;;;;;;;3.93;2.27;;;;;;;;;;5041673;28;20202;-75
2021/08/19 09:41:51;;;;;;;4.50;2.13;;;;;;;;;;5039235;28;20610;-75
2021/08/19 09:44:34;;;;;;;4.60;2.30;;;;;;;;;;5036617;28;20838;-75
2021/08/19 09:47:01;;;;;;;4.03;2.50;;;;;;;;;;5040302;28;20206;-74
2021/08/19 09:49:32;;;;;;;3.23;2.10;;;;;;;;;;5038194;28;20812;-75
2021/08/19 09:52:03;;;;;;;5.67;2.37;;;;;;;;;;5035157;28;20692;-75
2021/08/19 09:54:32;;;;;;;4.23;2.33;;;;;;;;;;5037424;28;20223;-75
2021/08/19 09:56:59;;;;;;;4.53;1.87;;;;;;;;;;5037719;28;20265;-74
2021/08/19 09:59:27;;;;;;;4.37;2.27;;;;;;;;;;5038038;28;20199;-75
2021/08/19 10:01:57;;;;;;;5.17;2.33;;;;;;;;;;5043439;28;20326;-75
2021/08/19 10:04:25;;;;;;;3.33;2.20;;;;;;;;;;5034677;28;20639;-82
2021/08/19 10:06:53;;;;;;;4.70;2.50;;;;;;;;;;5038311;28;20214;-76
2021/08/19 10:09:20;;;;;;;3.90;2.27;;;;;;;;;;5038085;28;20239;-76
2021/08/19 10:11:48;;;;;;;5.30;2.43;;;;;;;;;;5039598;28;20230;-75
2021/08/19 10:14:16;;;;;;;7.10;2.97;;;;;;;;;;5038859;28;20696;-76
2021/08/19 10:16:43;;;;;;;4.80;2.60;;;;;;;;;;5043115;28;20203;-75
2021/08/19 10:19:13;;;;;;;5.37;2.50;;;;;;;;;;5043566;28;20205;-75
2021/08/19 10:21:42;;;;;;;6.37;2.57;;;;;;;;;;5040482;28;20226;-75
2021/08/19 10:24:10;;;;;;;6.73;2.30;;;;;;;;;;5043327;28;20318;-75
2021/08/19 10:26:37;;;;;;;6.13;2.40;;;;;;;;;;5041764;28;20203;-76
2021/08/19 10:29:06;;;;;;;5.40;2.60;;;;;;;;;;5040307;28;20239;-76
2021/08/19 10:31:49;;;;;;;4.13;2.37;;;;;;;;;;5040546;28;20287;-77
2021/08/19 10:34:19;;;;;;;2.93;2.20;;;;;;;;;;5040099;28;20277;-76
2021/08/19 10:36:56;;;;;;;4.97;2.97;;;;;;;;;;5041608;28;20203;-75
2021/08/19 10:39:30;;;;;;;3.47;2.10;;;;;;;;;;5041716;28;20294;-75
2021/08/19 10:41:58;;;;;;;4.60;2.40;;;;;;;;;;5042381;28;20225;-75
2021/08/19 10:44:32;;;;;;;6.07;2.93;;;;;;;;;;5043407;28;20311;-76
2021/08/19 10:47:00;;;;;;;5.67;2.90;;;;;;;;;;5042388;28;20202;-76
2021/08/19 10:49:39;;;;;;;5.90;2.73;;;;;;;;;;5041786;28;20574;-76
2021/08/19 10:52:24;;;;;;;3.43;2.53;;;;;;;;;;5040927;28;20286;-76
2021/08/19 10:54:52;;;;;;;4.73;2.30;;;;;;;;;;5043449;28;20268;-76
2021/08/19 10:57:30;;;;;;;2.67;1.90;;;;;;;;;;5043947;28;20529;-76
2021/08/19 10:59:58;;;;;;;4.33;2.40;;;;;;;;;;5039572;28;20207;-76
2021/08/19 11:02:38;;;;;;;4.63;2.30;;;;;;;;;;5041710;28;20219;-77
2021/08/19 11:05:11;;;;;;;3.67;2.43;;;;;;;;;;5039772;28;20628;-76
2021/08/19 11:07:46;;;;;;;5.47;2.47;;;;;;;;;;5061964;22;20246;-83
2021/08/19 11:10:35;;;;;;;5.90;2.43;;;;;;;;;;5068318;28;20202;-84
2021/08/19 11:13:03;;;;;;;4.20;2.40;;;;;;;;;;5067124;28;20198;-84
2021/08/19 11:15:30;;;;;;;5.37;2.37;;;;;;;;;;5077920;28;20225;-84
2021/08/19 11:18:01;;;;;;;3.93;2.27;;;;;;;;;;5067877;28;20235;-84
2021/08/19 11:20:30;;;;;;;2.53;2.00;;;;;;;;;;5064750;28;20234;-84
2021/08/19 11:23:02;;;;;;;5.60;2.60;;;;;;;;;;5061104;28;20257;-84
2021/08/19 11:25:29;;;;;;;3.97;2.40;;;;;;;;;;5061785;28;20206;-84
2021/08/19 11:27:56;;;;;;;3.80;2.60;;;;;;;;;;5065070;28;20258;-84
2021/08/19 11:30:33;;;;;;;8.10;2.37;;;;;;;;;;5060275;28;20256;-84
2021/08/19 11:33:10;;;;;;;3.93;2.67;;;;;;;;;;5059820;28;20206;-82
2021/08/19 11:35:39;;;;;;;4.53;2.30;;;;;;;;;;5061286;28;20206;-84
2021/08/19 11:38:10;;;;;;;5.83;2.40;;;;;;;;;;5063236;28;20226;-84
2021/08/19 11:40:38;;;;;;;4.33;2.37;;;;;;;;;;5058637;28;20229;-84
2021/08/19 11:43:21;;;;;;;5.83;2.03;;;;;;;;;;5061700;28;20701;-85
2021/08/19 11:45:48;;;;;;;4.23;2.10;;;;;;;;;;5070704;28;20325;-83
2021/08/19 11:48:18;;;;;;;4.40;2.40;;;;;;;;;;5075078;28;20289;-81
2021/08/19 11:50:52;;;;;;;3.87;2.10;;;;;;;;;;5063801;28;20198;-83
2021/08/19 11:53:19;;;;;;;3.40;2.30;;;;;;;;;;5066371;28;20210;-83
2021/08/19 11:55:46;;;;;;;5.43;2.20;;;;;;;;;;5061713;28;20307;-83
2021/08/19 11:58:20;;;;;;;2.80;2.03;;;;;;;;;;5064619;28;20253;-83
2021/08/19 12:01:01;;;;;;;3.50;2.30;;;;;;;;;;5059823;28;20221;-84
2021/08/19 12:03:28;;;;;;;4.10;1.80;;;;;;;;;;5062313;28;20452;-84
2021/08/19 12:06:05;;;;;;;4.70;2.20;;;;;;;;;;5066865;28;20215;-83
2021/08/19 12:08:32;;;;;;;3.37;2.20;;;;;;;;;;5060184;28;20279;-83
2021/08/19 12:11:00;;;;;;;4.53;2.67;;;;;;;;;;5059362;28;20249;-83
2021/08/19 12:13:28;;;;;;;3.23;2.57;;;;;;;;;;5062542;28;20313;-83
2021/08/19 12:15:56;;;;;;;3.57;2.33;;;;;;;;;;5064998;28;20290;-83
2021/08/19 12:18:24;;;;;;;5.53;2.30;;;;;;;;;;5056593;28;20270;-82
2021/08/19 12:20:52;;;;;;;3.40;2.37;;;;;;;;;;5060549;28;20343;-83
2021/08/19 12:23:21;;;;;;;3.67;2.10;;;;;;;;;;5060271;28;20234;-83
2021/08/19 12:25:48;;;;;;;5.63;2.40;;;;;;;;;;5057334;28;20241;-83
2021/08/19 12:28:17;;;;;;;4.03;2.50;;;;;;;;;;5060452;28;20250;-83
2021/08/19 12:30:57;;;;;;;5.50;2.37;;;;;;;;;;5063561;28;20207;-84
2021/08/19 12:33:33;;;;;;;4.33;2.30;;;;;;;;;;5060706;28;20673;-82
2021/08/19 12:36:14;;;;;;;3.97;2.30;;;;;;;;;;5059340;28;20272;-85
2021/08/19 12:38:43;;;;;;;3.70;1.90;;;;;;;;;;5056896;28;20207;-83
2021/08/19 12:41:14;;;;;;;4.27;2.20;;;;;;;;;;5061781;28;20303;-84
2021/08/19 12:43:41;;;;;;;2.73;2.07;;;;;;;;;;5063678;28;20201;-83
2021/08/19 12:46:09;;;;;;;4.13;2.40;;;;;;;;;;5059956;28;20203;-84
2021/08/19 12:48:36;;;;;;;4.80;2.40;;;;;;;;;;5064252;28;20203;-83
2021/08/19 12:51:19;;;;;;;3.67;2.37;;;;;;;;;;5064508;28;20304;-84
2021/08/19 12:54:03;;;;;;;3.13;2.20;;;;;;;;;;5060935;28;21047;-83
2021/08/19 12:56:30;;;;;;;3.33;2.20;;;;;;;;;;5061839;28;20222;-83
2021/08/19 12:58:57;;;;;;;3.33;2.00;;;;;;;;;;5061592;28;20195;-84
2021/08/19 13:01:25;;;;;;;2.93;1.90;;;;;;;;;;5060432;28;20309;-84
2021/08/19 13:03:52;;;;;;;3.40;1.97;;;;;;;;;;5063321;28;20593;-82
2021/08/19 13:06:20;;;;;;;5.17;2.47;;;;;;;;;;5059962;28;20301;-84
2021/08/19 13:08:47;;;;;;;4.60;2.27;;;;;;;;;;5058838;28;20639;-83
2021/08/19 13:11:16;;;;;;;2.67;2.00;;;;;;;;;;5055092;28;20230;-83
2021/08/19 13:13:44;;;;;;;3.83;2.20;;;;;;;;;;5062508;28;20277;-84
2021/08/19 13:16:11;;;;;;;2.40;1.90;;;;;;;;;;5061201;28;20202;-83
2021/08/19 13:18:38;;;;;;;2.87;1.73;;;;;;;;;;5063145;28;20199;-83
2021/08/19 13:21:07;;;;;;;4.70;2.77;;;;;;;;;;5062198;28;20201;-82
2021/08/19 13:23:34;;;;;;;3.93;2.20;;;;;;;;;;5057580;28;20928;-82
2021/08/19 13:26:01;;;;;;;3.20;1.87;;;;;;;;;;5064966;28;20291;-83
2021/08/19 13:28:30;;;;;;;2.83;2.13;;;;;;;;;;5064671;28;20647;-83
2021/08/19 13:30:57;;;;;;;3.13;2.00;;;;;;;;;;5060682;28;20210;-82
2021/08/19 13:33:24;;;;;;;2.77;1.93;;;;;;;;;;5061948;28;20550;-84
2021/08/19 13:35:51;;;;;;;3.57;2.37;;;;;;;;;;5063926;28;20235;-88
2021/08/19 13:38:24;;;;;;;4.77;2.10;;;;;;;;;;5071041;28;20309;-83
2021/08/19 13:40:51;;;;;;;3.63;1.97;;;;;;;;;;5065158;28;20202;-82
2021/08/19 13:43:18;;;;;;;5.37;1.80;;;;;;;;;;5058077;28;20218;-84
2021/08/19 13:45:46;;;;;;;3.00;1.70;;;;;;;;;;5062800;28;20266;-82
2021/08/19 13:48:14;;;;;;;2.80;1.70;;;;;;;;;;5080762;28;20238;-82
2021/08/19 13:50:41;;;;;;;2.33;1.80;;;;;;;;;;5074892;28;20459;-82
2021/08/19 13:53:08;;;;;;;3.50;1.60;;;;;;;;;;5067969;28;20196;-81
2021/08/19 13:55:35;;;;;;;4.40;2.07;;;;;;;;;;5056000;28;20206;-82
2021/08/19 13:58:03;;;;;;;2.77;1.70;;;;;;;;;;5053075;28;20289;-82
2021/08/19 14:00:31;;;;;;;2.80;1.67;;;;;;;;;;5060575;28;20290;-84
2021/08/19 14:02:59;;;;;;;4.87;1.87;;;;;;;;;;5056939;28;20228;-82
2021/08/19 14:05:26;;;;;;;5.17;1.80;;;;;;;;;;5062739;28;20212;-82
2021/08/19 14:07:54;;;;;;;4.13;1.50;;;;;;;;;;5068121;28;20254;-82
2021/08/19 14:10:21;;;;;;;2.37;1.70;;;;;;;;;;5069980;28;20217;-83
2021/08/19 14:12:49;;;;;;;2.70;1.40;;;;;;;;;;5063304;28;20203;-83
2021/08/19 14:15:16;;;;;;;2.10;1.50;;;;;;;;;;5062720;28;20209;-82
2021/08/19 14:17:45;;;;;;;2.83;1.60;;;;;;;;;;5061068;28;20260;-82
2021/08/19 14:20:14;;;;;;;5.17;1.80;;;;;;;;;;5063706;28;20206;-83
2021/08/19 14:22:41;;;;;;;2.57;1.50;;;;;;;;;;5060650;28;20230;-82
2021/08/19 14:25:08;;;;;;;2.40;1.70;;;;;;;;;;5056856;28;20202;-83
2021/08/19 14:27:36;;;;;;;4.40;2.17;;;;;;;;;;5059141;28;20409;-82
2021/08/19 14:30:03;;;;;;;6.00;2.77;;;;;;;;;;5061696;28;20268;-82
2021/08/19 14:32:30;;;;;;;3.57;2.23;;;;;;;;;;5063166;28;20326;-82
2021/08/19 14:34:57;;;;;;;3.47;2.30;;;;;;;;;;5057356;28;20285;-82
2021/08/19 14:37:26;;;;;;;2.67;2.10;;;;;;;;;;5058354;28;20223;-83
2021/08/19 14:39:53;;;;;;;3.40;2.30;;;;;;;;;;5058674;28;20285;-82
2021/08/19 14:42:20;;;;;;;3.27;1.90;;;;;;;;;;5057325;28;20305;-82
2021/08/19 14:44:47;;;;;;;3.73;1.97;;;;;;;;;;5055811;28;20211;-81
2021/08/19 14:47:14;;;;;;;2.40;2.10;;;;;;;;;;5060825;28;20226;-84